Time;durP1;ratioP1;P1;durP2;ratioP2;P2;SDS_P1;SDS_P2;PMS_P1;PMS_P2;Temp;Humidity;BMP_temperature;BMP_pressure;BME280_temperature;BME280_humidity;BME280_pressure;Samples;Min_cycle;Max_cycle;Signal;HPM_P1;HPM_P2
2022/08/15 00:00:17;;;;;;;11.50;10.32;;;;;;;;;;5031879;28;20725;-49
2022/08/15 00:02:44;;;;;;;14.20;9.85;;;;;;;;;;5032907;28;20236;-50
2022/08/15 00:05:12;;;;;;;10.57;9.65;;;;;;;;;;5024720;28;20670;-51
2022/08/15 00:07:38;;;;;;;13.00;10.00;;;;;;;;;;5024625;28;20235;-51
2022/08/15 00:10:07;;;;;;;10.95;9.82;;;;;;;;;;5026534;28;20737;-52
2022/08/15 00:12:35;;;;;;;10.55;9.45;;;;;;;;;;5035652;28;20251;-51
2022/08/15 00:15:01;;;;;;;11.05;9.40;;;;;;;;;;5032916;28;20232;-50
2022/08/15 00:17:28;;;;;;;12.05;10.30;;;;;;;;;;5025556;28;20234;-50
2022/08/15 00:19:55;;;;;;;10.77;9.25;;;;;;;;;;5031409;28;20236;-51
2022/08/15 00:22:21;;;;;;;10.77;9.68;;;;;;;;;;5024579;28;20232;-51
2022/08/15 00:24:49;;;;;;;10.93;9.93;;;;;;;;;;5031097;28;21770;-50
2022/08/15 00:27:16;;;;;;;12.50;9.98;;;;;;;;;;5030612;28;20229;-51
2022/08/15 00:29:43;;;;;;;10.90;9.77;;;;;;;;;;5034888;28;20232;-50
2022/08/15 00:32:10;;;;;;;14.90;9.93;;;;;;;;;;5031309;28;20240;-51
2022/08/15 00:34:37;;;;;;;11.23;10.13;;;;;;;;;;5020015;28;20256;-50
2022/08/15 00:37:05;;;;;;;11.52;10.35;;;;;;;;;;5025881;28;20239;-51
2022/08/15 00:39:32;;;;;;;10.63;9.52;;;;;;;;;;5027124;28;20274;-51
2022/08/15 00:42:00;;;;;;;12.93;9.80;;;;;;;;;;5036310;28;20242;-51
2022/08/15 00:44:30;;;;;;;15.30;11.32;;;;;;;;;;5025708;28;20353;-50
2022/08/15 00:46:57;;;;;;;15.20;10.52;;;;;;;;;;5027480;28;20574;-51
2022/08/15 00:49:25;;;;;;;12.13;10.05;;;;;;;;;;5022328;28;20236;-51
2022/08/15 00:51:53;;;;;;;11.30;10.40;;;;;;;;;;5035321;28;20251;-50
2022/08/15 00:54:24;;;;;;;11.93;10.02;;;;;;;;;;5033148;28;20244;-51
2022/08/15 00:56:51;;;;;;;11.93;10.70;;;;;;;;;;5033156;28;20247;-50
2022/08/15 00:59:20;;;;;;;11.27;10.32;;;;;;;;;;5031756;28;20236;-51
2022/08/15 01:01:48;;;;;;;10.90;9.90;;;;;;;;;;5031701;28;20236;-49
2022/08/15 01:04:15;;;;;;;13.32;10.93;;;;;;;;;;5027000;28;20260;-50
2022/08/15 01:06:42;;;;;;;11.98;10.70;;;;;;;;;;5033115;28;20224;-51
2022/08/15 01:09:09;;;;;;;11.38;10.27;;;;;;;;;;5029042;28;20232;-50
2022/08/15 01:11:37;;;;;;;11.27;10.18;;;;;;;;;;5033107;28;20772;-51
2022/08/15 01:14:06;;;;;;;12.23;10.70;;;;;;;;;;5027258;28;20240;-51
2022/08/15 01:16:34;;;;;;;11.88;10.65;;;;;;;;;;5021150;28;20233;-51
2022/08/15 01:19:03;;;;;;;10.85;9.98;;;;;;;;;;5019557;28;20248;-50
2022/08/15 01:21:32;;;;;;;11.90;10.73;;;;;;;;;;5032882;28;20231;-50
2022/08/15 01:24:03;;;;;;;10.25;9.35;;;;;;;;;;5025267;28;20233;-51
2022/08/15 01:26:32;;;;;;;12.25;10.98;;;;;;;;;;5033141;28;20283;-51
2022/08/15 01:28:58;;;;;;;12.50;11.20;;;;;;;;;;5023771;28;20737;-51
2022/08/15 01:31:26;;;;;;;12.57;11.00;;;;;;;;;;5026468;28;20235;-51
2022/08/15 01:33:53;;;;;;;12.68;10.63;;;;;;;;;;5028554;28;20282;-50
2022/08/15 01:36:22;;;;;;;12.65;11.50;;;;;;;;;;5026498;28;20335;-51
2022/08/15 01:38:52;;;;;;;11.73;10.10;;;;;;;;;;5031622;28;20233;-50
2022/08/15 01:41:22;;;;;;;11.50;10.35;;;;;;;;;;5028613;28;20243;-49
2022/08/15 01:43:52;;;;;;;11.85;10.85;;;;;;;;;;5019491;28;20239;-50
2022/08/15 01:46:20;;;;;;;12.13;11.00;;;;;;;;;;5028491;28;20233;-50
2022/08/15 01:48:50;;;;;;;16.45;12.50;;;;;;;;;;5027783;28;20249;-51
2022/08/15 01:51:17;;;;;;;15.73;11.68;;;;;;;;;;5035132;28;20232;-50
2022/08/15 01:53:46;;;;;;;13.07;11.70;;;;;;;;;;5021146;28;20239;-51
2022/08/15 01:56:15;;;;;;;11.80;10.70;;;;;;;;;;5029269;28;20248;-51
2022/08/15 01:58:42;;;;;;;11.15;10.15;;;;;;;;;;5026328;28;20750;-50
2022/08/15 02:01:11;;;;;;;11.63;10.40;;;;;;;;;;5030482;28;20239;-50
2022/08/15 02:03:38;;;;;;;13.30;11.18;;;;;;;;;;5027180;28;20241;-50
2022/08/15 02:06:06;;;;;;;11.98;10.68;;;;;;;;;;5031651;28;20240;-49
2022/08/15 02:08:32;;;;;;;11.70;10.70;;;;;;;;;;5035160;28;20234;-50
2022/08/15 02:10:59;;;;;;;12.73;11.50;;;;;;;;;;5021182;28;20245;-50
2022/08/15 02:13:26;;;;;;;11.30;10.40;;;;;;;;;;5026280;28;20247;-51
2022/08/15 02:15:53;;;;;;;12.02;10.90;;;;;;;;;;5032622;28;20228;-50
2022/08/15 02:18:21;;;;;;;12.75;11.48;;;;;;;;;;5033808;28;20792;-50
2022/08/15 02:20:47;;;;;;;12.55;11.25;;;;;;;;;;5031124;28;20500;-50
2022/08/15 02:23:13;;;;;;;13.52;11.82;;;;;;;;;;5029269;28;20237;-50
2022/08/15 02:25:40;;;;;;;12.52;11.43;;;;;;;;;;5022584;28;20239;-49
2022/08/15 02:28:06;;;;;;;13.32;12.07;;;;;;;;;;5033114;28;20232;-49
2022/08/15 02:30:34;;;;;;;12.27;11.18;;;;;;;;;;5029658;28;20240;-49
2022/08/15 02:33:00;;;;;;;11.68;10.68;;;;;;;;;;5027386;28;20318;-50
2022/08/15 02:35:28;;;;;;;13.02;11.73;;;;;;;;;;5026463;28;20287;-50
2022/08/15 02:37:55;;;;;;;13.25;12.00;;;;;;;;;;5034320;28;20239;-50
2022/08/15 02:40:21;;;;;;;13.63;12.43;;;;;;;;;;5028768;28;20669;-50
2022/08/15 02:42:48;;;;;;;13.00;11.90;;;;;;;;;;5033356;28;20233;-50
2022/08/15 02:45:14;;;;;;;11.48;10.48;;;;;;;;;;5033445;28;20237;-50
2022/08/15 02:47:43;;;;;;;12.52;11.43;;;;;;;;;;5032103;28;20231;-50
2022/08/15 02:50:10;;;;;;;13.07;10.32;;;;;;;;;;5026026;28;20237;-49
2022/08/15 02:52:40;;;;;;;12.50;11.30;;;;;;;;;;5029337;28;20598;-51
2022/08/15 02:55:07;;;;;;;12.70;11.52;;;;;;;;;;5022032;28;20241;-50
2022/08/15 02:57:34;;;;;;;12.60;11.32;;;;;;;;;;5033206;28;20228;-53
2022/08/15 03:00:01;;;;;;;13.65;12.35;;;;;;;;;;5026822;28;20291;-51
2022/08/15 03:02:28;;;;;;;13.52;12.32;;;;;;;;;;5043035;28;20864;-52
2022/08/15 03:04:54;;;;;;;12.50;11.27;;;;;;;;;;5033400;28;20242;-52
2022/08/15 03:07:20;;;;;;;14.70;13.20;;;;;;;;;;5026666;28;20225;-52
2022/08/15 03:09:48;;;;;;;15.48;13.50;;;;;;;;;;5037556;28;20285;-52
2022/08/15 03:12:15;;;;;;;17.02;12.48;;;;;;;;;;5036022;28;20323;-50
2022/08/15 03:14:41;;;;;;;14.90;12.50;;;;;;;;;;5026834;28;20233;-52
2022/08/15 03:17:09;;;;;;;13.50;12.18;;;;;;;;;;5024902;28;20232;-52
2022/08/15 03:19:36;;;;;;;13.23;12.10;;;;;;;;;;5035008;28;20235;-52
2022/08/15 03:22:03;;;;;;;13.43;12.02;;;;;;;;;;5024482;28;20255;-51
2022/08/15 03:24:30;;;;;;;13.80;12.27;;;;;;;;;;5025702;28;20237;-52
2022/08/15 03:26:58;;;;;;;13.93;12.65;;;;;;;;;;5032162;28;20238;-52
2022/08/15 03:29:26;;;;;;;11.95;10.68;;;;;;;;;;5027939;28;20242;-52
2022/08/15 03:31:52;;;;;;;13.65;12.35;;;;;;;;;;5029395;28;20242;-52
2022/08/15 03:34:20;;;;;;;12.07;11.07;;;;;;;;;;5024005;28;20233;-51
2022/08/15 03:36:47;;;;;;;14.80;13.32;;;;;;;;;;5027691;28;20311;-51
2022/08/15 03:39:13;;;;;;;13.50;12.40;;;;;;;;;;5027954;28;20260;-51
2022/08/15 03:41:40;;;;;;;14.80;13.45;;;;;;;;;;5029841;28;20232;-51
2022/08/15 03:44:08;;;;;;;15.75;13.98;;;;;;;;;;5032745;28;20247;-50
2022/08/15 03:46:34;;;;;;;15.18;13.60;;;;;;;;;;5018225;28;21275;-51
2022/08/15 03:49:01;;;;;;;15.07;13.57;;;;;;;;;;5027695;28;20729;-51
2022/08/15 03:51:27;;;;;;;14.75;13.45;;;;;;;;;;5022898;28;20228;-51
2022/08/15 03:53:55;;;;;;;14.52;13.32;;;;;;;;;;5027505;28;20244;-51
2022/08/15 03:56:23;;;;;;;16.90;13.73;;;;;;;;;;5019300;28;20243;-51
2022/08/15 03:58:50;;;;;;;12.98;11.82;;;;;;;;;;5022064;28;20239;-52
2022/08/15 04:01:19;;;;;;;15.82;14.30;;;;;;;;;;5023593;28;20243;-51
2022/08/15 04:03:46;;;;;;;16.60;14.55;;;;;;;;;;5027928;28;20232;-52
2022/08/15 04:06:14;;;;;;;16.45;14.65;;;;;;;;;;5030033;28;20237;-51
2022/08/15 04:08:42;;;;;;;15.82;14.23;;;;;;;;;;5030564;28;20287;-51
2022/08/15 04:11:09;;;;;;;18.83;14.30;;;;;;;;;;5025372;28;20241;-52
2022/08/15 04:13:38;;;;;;;15.57;14.18;;;;;;;;;;5030138;28;20247;-52
2022/08/15 04:16:05;;;;;;;15.18;13.65;;;;;;;;;;5023372;28;20236;-50
2022/08/15 04:18:33;;;;;;;16.92;14.75;;;;;;;;;;5026568;28;20232;-51
2022/08/15 04:21:01;;;;;;;14.93;13.52;;;;;;;;;;5027964;28;21021;-51
2022/08/15 04:23:28;;;;;;;16.15;14.45;;;;;;;;;;5033309;28;20236;-51
2022/08/15 04:25:55;;;;;;;17.02;15.30;;;;;;;;;;5025216;28;20236;-51
2022/08/15 04:28:22;;;;;;;15.32;13.77;;;;;;;;;;5030545;28;20228;-51
2022/08/15 04:30:49;;;;;;;16.95;15.35;;;;;;;;;;5032076;28;20236;-51
2022/08/15 04:33:17;;;;;;;16.25;14.60;;;;;;;;;;5027670;28;20232;-51
2022/08/15 04:35:46;;;;;;;16.20;14.70;;;;;;;;;;5021586;28;20229;-51
2022/08/15 04:38:12;;;;;;;14.23;12.82;;;;;;;;;;5032520;28;20246;-51
2022/08/15 04:40:40;;;;;;;15.57;14.18;;;;;;;;;;5027031;28;20236;-52
2022/08/15 04:43:07;;;;;;;15.13;13.68;;;;;;;;;;5022292;28;20237;-51
2022/08/15 04:45:34;;;;;;;15.80;14.35;;;;;;;;;;5021570;28;20766;-52
2022/08/15 04:48:02;;;;;;;16.52;13.85;;;;;;;;;;5023741;28;20237;-52
2022/08/15 04:50:30;;;;;;;18.52;14.93;;;;;;;;;;5031364;28;20224;-50
2022/08/15 04:52:59;;;;;;;14.60;13.18;;;;;;;;;;5024547;28;21267;-50
2022/08/15 04:55:26;;;;;;;15.43;13.75;;;;;;;;;;5036168;22;20479;-56
2022/08/15 04:57:53;;;;;;;15.35;13.95;;;;;;;;;;5019129;28;20237;-55
2022/08/15 05:00:21;;;;;;;18.42;14.50;;;;;;;;;;5014252;28;20239;-55
2022/08/15 05:02:57;;;;;;;16.13;14.43;;;;;;;;;;5015651;28;20232;-56
2022/08/15 05:05:24;;;;;;;14.80;13.40;;;;;;;;;;5014157;28;20263;-56
2022/08/15 05:07:50;;;;;;;15.25;13.98;;;;;;;;;;5019274;28;20284;-56
2022/08/15 05:10:18;;;;;;;15.07;13.63;;;;;;;;;;5019584;28;20244;-57
2022/08/15 05:12:44;;;;;;;14.77;13.40;;;;;;;;;;5019463;28;20227;-57
2022/08/15 05:15:11;;;;;;;15.10;13.40;;;;;;;;;;5020482;28;20243;-56
2022/08/15 05:17:37;;;;;;;13.80;12.55;;;;;;;;;;5015461;28;20782;-56
2022/08/15 05:20:04;;;;;;;14.55;12.98;;;;;;;;;;5017778;28;20237;-55
2022/08/15 05:22:31;;;;;;;13.57;12.38;;;;;;;;;;5021034;28;20225;-55
2022/08/15 05:24:57;;;;;;;12.82;11.50;;;;;;;;;;5009062;28;20233;-56
2022/08/15 05:27:25;;;;;;;13.85;12.07;;;;;;;;;;5021406;28;20251;-56
2022/08/15 05:29:52;;;;;;;15.70;13.60;;;;;;;;;;5024176;28;20248;-56
2022/08/15 05:32:18;;;;;;;13.88;12.07;;;;;;;;;;5023122;28;20224;-56
2022/08/15 05:34:44;;;;;;;12.75;11.55;;;;;;;;;;5023184;28;20239;-56
2022/08/15 05:37:11;;;;;;;13.30;11.93;;;;;;;;;;5018532;28;20247;-55
2022/08/15 05:39:39;;;;;;;16.20;12.90;;;;;;;;;;5022046;28;20658;-56
2022/08/15 05:42:11;;;;;;;12.50;11.32;;;;;;;;;;5025011;28;20237;-56
2022/08/15 05:44:44;;;;;;;13.07;11.88;;;;;;;;;;5020404;28;20240;-56
2022/08/15 05:47:16;;;;;;;17.88;12.52;;;;;;;;;;5009520;28;20241;-55
2022/08/15 05:49:50;;;;;;;14.15;12.75;;;;;;;;;;5020731;28;20276;-54
2022/08/15 05:52:25;;;;;;;14.27;12.77;;;;;;;;;;5021149;28;20241;-54
2022/08/15 05:54:56;;;;;;;14.65;13.13;;;;;;;;;;5024299;28;20318;-55
2022/08/15 05:57:26;;;;;;;13.60;12.20;;;;;;;;;;5017878;28;20404;-55
2022/08/15 05:59:57;;;;;;;13.02;11.73;;;;;;;;;;5019728;28;20263;-54
2022/08/15 06:02:28;;;;;;;13.38;12.00;;;;;;;;;;5023194;28;20236;-56
2022/08/15 06:04:59;;;;;;;13.77;12.43;;;;;;;;;;5018585;28;20247;-55
2022/08/15 06:07:26;;;;;;;13.27;12.02;;;;;;;;;;5022519;28;20240;-56
2022/08/15 06:09:55;;;;;;;14.30;13.00;;;;;;;;;;5021447;28;20235;-55
2022/08/15 06:12:25;;;;;;;13.30;12.07;;;;;;;;;;5020126;28;20232;-58
2022/08/15 06:14:53;;;;;;;16.55;13.90;;;;;;;;;;5020621;28;20749;-55
2022/08/15 06:17:24;;;;;;;15.02;13.43;;;;;;;;;;5023885;28;20229;-58
2022/08/15 06:19:51;;;;;;;14.30;13.00;;;;;;;;;;5020204;28;20236;-55
2022/08/15 06:22:34;;;;;;;14.27;12.98;;;;;;;;;;5024731;28;20241;-57
2022/08/15 06:25:06;;;;;;;13.55;12.32;;;;;;;;;;5023550;28;20240;-55
2022/08/15 06:27:36;;;;;;;14.13;12.82;;;;;;;;;;5017212;28;20240;-55
2022/08/15 06:30:06;;;;;;;16.00;13.98;;;;;;;;;;5019836;28;20232;-56
2022/08/15 06:32:38;;;;;;;13.88;12.55;;;;;;;;;;5019965;28;20236;-56
2022/08/15 06:35:09;;;;;;;14.48;13.07;;;;;;;;;;5018921;28;20647;-55
2022/08/15 06:37:38;;;;;;;15.15;13.38;;;;;;;;;;5016366;28;20433;-55
2022/08/15 06:40:10;;;;;;;13.38;12.27;;;;;;;;;;5017725;28;20244;-55
2022/08/15 06:42:38;;;;;;;14.73;13.30;;;;;;;;;;5021404;28;20222;-56
2022/08/15 06:45:06;;;;;;;14.70;12.93;;;;;;;;;;5019604;28;20427;-56
2022/08/15 06:47:34;;;;;;;15.90;14.48;;;;;;;;;;5024828;28;20224;-57
2022/08/15 06:50:05;;;;;;;13.27;11.95;;;;;;;;;;5018951;28;20233;-56
2022/08/15 06:52:32;;;;;;;13.23;12.02;;;;;;;;;;5020371;28;20235;-55
2022/08/15 06:54:59;;;;;;;13.40;12.18;;;;;;;;;;5024649;28;20244;-56
2022/08/15 06:57:28;;;;;;;13.57;12.07;;;;;;;;;;5019253;28;20730;-56
2022/08/15 06:59:57;;;;;;;14.45;13.13;;;;;;;;;;5020753;28;20626;-57
2022/08/15 07:02:32;;;;;;;14.18;12.88;;;;;;;;;;5026459;28;20236;-56
2022/08/15 07:05:04;;;;;;;13.93;12.52;;;;;;;;;;5023900;28;20236;-54
2022/08/15 07:07:35;;;;;;;14.70;13.18;;;;;;;;;;5023071;28;20233;-54
2022/08/15 07:10:06;;;;;;;13.23;12.02;;;;;;;;;;5022730;28;20245;-55
2022/08/15 07:12:36;;;;;;;13.85;12.63;;;;;;;;;;5015498;28;20249;-55
2022/08/15 07:15:05;;;;;;;20.75;13.57;;;;;;;;;;5023683;28;20241;-56
2022/08/15 07:17:34;;;;;;;13.90;12.60;;;;;;;;;;5021650;28;20236;-55
2022/08/15 07:20:02;;;;;;;14.63;12.68;;;;;;;;;;5021314;28;20245;-55
2022/08/15 07:22:30;;;;;;;13.85;12.52;;;;;;;;;;5011611;28;20236;-54
2022/08/15 07:24:57;;;;;;;14.05;12.57;;;;;;;;;;5020893;28;20237;-54
2022/08/15 07:27:28;;;;;;;12.13;11.13;;;;;;;;;;5016323;28;20462;-56
2022/08/15 07:29:59;;;;;;;12.82;11.52;;;;;;;;;;5024004;28;20233;-54
2022/08/15 07:32:27;;;;;;;20.10;12.52;;;;;;;;;;5023519;28;20232;-59
2022/08/15 07:34:55;;;;;;;13.90;12.50;;;;;;;;;;5017500;28;20244;-55
2022/08/15 07:37:23;;;;;;;17.60;12.45;;;;;;;;;;5022144;28;20239;-56
2022/08/15 07:39:57;;;;;;;13.07;11.88;;;;;;;;;;5022385;28;20232;-59
2022/08/15 07:42:24;;;;;;;10.65;9.65;;;;;;;;;;5020385;28;20229;-56
2022/08/15 07:44:51;;;;;;;10.40;9.30;;;;;;;;;;5023771;28;20239;-55
2022/08/15 07:47:21;;;;;;;10.55;9.45;;;;;;;;;;5018270;28;20228;-55
2022/08/15 07:49:58;;;;;;;9.93;9.05;;;;;;;;;;5020905;28;20683;-55
2022/08/15 07:52:25;;;;;;;10.35;9.45;;;;;;;;;;5018716;28;20885;-56
2022/08/15 07:54:53;;;;;;;11.23;10.05;;;;;;;;;;5017877;28;20251;-56
2022/08/15 07:57:21;;;;;;;11.65;10.43;;;;;;;;;;5015092;28;20238;-55
2022/08/15 08:00:07;;;;;;;9.95;9.00;;;;;;;;;;5010312;28;20229;-55
2022/08/15 08:02:40;;;;;;;10.38;9.32;;;;;;;;;;5015196;28;20228;-54
2022/08/15 08:05:07;;;;;;;10.27;9.38;;;;;;;;;;5020676;28;20271;-55
2022/08/15 08:07:37;;;;;;;9.68;8.70;;;;;;;;;;5016644;28;20296;-56
2022/08/15 08:10:08;;;;;;;9.32;8.52;;;;;;;;;;5018408;28;20239;-57
2022/08/15 08:12:40;;;;;;;9.60;8.80;;;;;;;;;;5015553;28;20821;-54
2022/08/15 08:15:12;;;;;;;10.02;8.57;;;;;;;;;;5013568;28;20242;-56
2022/08/15 08:17:42;;;;;;;8.93;8.10;;;;;;;;;;5023041;28;20327;-57
2022/08/15 08:20:11;;;;;;;9.23;8.32;;;;;;;;;;5019431;28;20230;-54
2022/08/15 08:22:47;;;;;;;10.10;9.20;;;;;;;;;;5018724;28;20231;-56
2022/08/15 08:25:16;;;;;;;10.02;9.18;;;;;;;;;;5015477;28;20236;-56
2022/08/15 08:27:45;;;;;;;10.07;8.77;;;;;;;;;;5020716;28;20226;-55
2022/08/15 08:30:13;;;;;;;12.02;10.93;;;;;;;;;;5015509;28;20232;-56
2022/08/15 08:32:44;;;;;;;9.80;8.88;;;;;;;;;;5015153;28;20240;-55
2022/08/15 08:35:15;;;;;;;10.68;9.50;;;;;;;;;;5011980;28;20245;-55
2022/08/15 08:37:49;;;;;;;10.65;9.73;;;;;;;;;;5018510;28;20236;-54
2022/08/15 08:43:11;;;;;;;10.25;9.18;;;;;;;;;;5013324;28;20228;-55
2022/08/15 08:45:43;;;;;;;10.02;8.70;;;;;;;;;;5017933;28;20235;-54
2022/08/15 08:48:22;;;;;;;10.73;9.77;;;;;;;;;;5014862;28;20236;-55
2022/08/15 08:50:52;;;;;;;10.60;9.50;;;;;;;;;;5011912;28;20235;-55
2022/08/15 08:53:28;;;;;;;9.68;8.75;;;;;;;;;;5009080;28;20236;-55
2022/08/15 08:55:56;;;;;;;9.98;9.15;;;;;;;;;;5014509;28;20315;-55
2022/08/15 08:58:25;;;;;;;9.70;8.82;;;;;;;;;;5013521;28;20252;-54
2022/08/15 09:00:52;;;;;;;11.15;10.15;;;;;;;;;;5017333;28;20240;-54
2022/08/15 09:03:20;;;;;;;9.27;8.38;;;;;;;;;;5019433;28;20229;-53
2022/08/15 09:05:51;;;;;;;10.88;9.88;;;;;;;;;;5011203;28;20236;-55
2022/08/15 09:08:24;;;;;;;10.77;9.77;;;;;;;;;;5017473;28;20236;-54
2022/08/15 09:10:54;;;;;;;10.65;8.40;;;;;;;;;;5016609;28;20239;-55
2022/08/15 09:13:36;;;;;;;9.90;9.10;;;;;;;;;;5016859;28;20306;-54
2022/08/15 09:16:06;;;;;;;10.27;9.32;;;;;;;;;;5011622;28;20245;-54
2022/08/15 09:18:35;;;;;;;9.30;8.50;;;;;;;;;;5011949;28;20229;-55
2022/08/15 09:21:02;;;;;;;10.27;9.32;;;;;;;;;;5018398;28;20240;-55
2022/08/15 09:23:31;;;;;;;9.80;8.65;;;;;;;;;;5010395;28;20315;-54
2022/08/15 09:26:02;;;;;;;9.57;8.68;;;;;;;;;;5013659;28;20241;-54
2022/08/15 09:28:30;;;;;;;9.88;8.98;;;;;;;;;;5014912;28;20231;-54
2022/08/15 09:30:59;;;;;;;9.75;8.98;;;;;;;;;;5015287;28;20313;-55
2022/08/15 09:33:37;;;;;;;13.25;9.27;;;;;;;;;;5013702;28;20240;-54
2022/08/15 09:36:13;;;;;;;10.15;8.95;;;;;;;;;;5012463;28;20582;-53
2022/08/15 09:38:47;;;;;;;9.77;8.98;;;;;;;;;;5011274;28;20233;-54
2022/08/15 09:41:34;;;;;;;10.38;9.27;;;;;;;;;;5014878;28;20726;-55
2022/08/15 09:44:09;;;;;;;9.35;8.50;;;;;;;;;;5006629;28;20277;-54
2022/08/15 09:46:49;;;;;;;8.18;7.47;;;;;;;;;;5011715;28;20672;-54
2022/08/15 09:49:21;;;;;;;9.38;8.48;;;;;;;;;;5015993;28;20244;-54
2022/08/15 09:51:58;;;;;;;11.15;9.48;;;;;;;;;;5012038;28;20746;-54
2022/08/15 09:54:25;;;;;;;12.07;10.40;;;;;;;;;;5012974;28;20291;-54
2022/08/15 09:57:13;;;;;;;9.23;8.32;;;;;;;;;;5016259;28;20244;-55
2022/08/15 09:59:39;;;;;;;9.32;8.40;;;;;;;;;;5013147;28;20247;-53
2022/08/15 10:02:11;;;;;;;11.50;10.30;;;;;;;;;;5011773;28;20225;-55
2022/08/15 10:05:00;;;;;;;11.20;10.20;;;;;;;;;;5008625;28;20248;-54
2022/08/15 10:07:32;;;;;;;10.85;9.52;;;;;;;;;;5015796;28;20296;-55
2022/08/15 10:10:09;;;;;;;11.05;10.07;;;;;;;;;;5013790;28;20232;-54
2022/08/15 10:12:38;;;;;;;11.57;9.18;;;;;;;;;;5021799;28;20233;-55
2022/08/15 10:15:26;;;;;;;9.80;8.90;;;;;;;;;;5024283;28;25225;-55
2022/08/15 10:17:52;;;;;;;9.77;8.88;;;;;;;;;;5015567;28;20233;-55
2022/08/15 10:20:48;;;;;;;10.05;9.10;;;;;;;;;;5019417;28;20238;-53
2022/08/15 10:23:15;;;;;;;10.23;9.38;;;;;;;;;;4956288;28;20243;-55
2022/08/15 10:25:43;;;;;;;9.65;8.75;;;;;;;;;;5002741;28;20241;-55
2022/08/15 10:28:21;;;;;;;10.02;9.07;;;;;;;;;;5018175;28;20241;-55
2022/08/15 10:31:12;;;;;;;9.85;8.85;;;;;;;;;;5014097;28;20687;-56
2022/08/15 10:33:44;;;;;;;9.48;8.55;;;;;;;;;;5012461;28;20241;-54
2022/08/15 10:36:18;;;;;;;10.73;8.55;;;;;;;;;;5016987;28;20323;-53
2022/08/15 10:38:46;;;;;;;9.98;8.95;;;;;;;;;;5016125;28;20237;-54
2022/08/15 10:41:16;;;;;;;9.85;9.02;;;;;;;;;;5012560;28;20245;-53
2022/08/15 10:43:56;;;;;;;9.25;8.43;;;;;;;;;;5014062;28;20229;-54
2022/08/15 10:46:28;;;;;;;9.13;8.32;;;;;;;;;;5011992;28;20233;-54
2022/08/15 10:49:03;;;;;;;9.43;8.27;;;;;;;;;;5012041;28;20312;-57
2022/08/15 10:51:48;;;;;;;9.98;9.02;;;;;;;;;;5019338;28;20239;-54
2022/08/15 10:54:22;;;;;;;9.50;8.60;;;;;;;;;;5016111;28;20268;-54
2022/08/15 10:56:54;;;;;;;9.13;8.27;;;;;;;;;;5036240;22;20239;-55
2022/08/15 10:59:23;;;;;;;8.80;8.10;;;;;;;;;;5038173;28;20240;-55
2022/08/15 11:01:51;;;;;;;9.68;8.77;;;;;;;;;;5040207;28;20920;-55
2022/08/15 11:04:25;;;;;;;9.43;8.50;;;;;;;;;;5032684;28;20241;-55
2022/08/15 11:06:53;;;;;;;9.13;8.23;;;;;;;;;;5009081;28;20739;-55
2022/08/15 11:09:20;;;;;;;9.73;8.77;;;;;;;;;;5009687;28;20233;-54
2022/08/15 11:11:50;;;;;;;11.93;7.93;;;;;;;;;;5015163;28;20249;-55
2022/08/15 11:14:19;;;;;;;9.65;8.38;;;;;;;;;;5018619;28;20252;-57
2022/08/15 11:16:47;;;;;;;9.15;8.35;;;;;;;;;;5014398;28;20291;-55
2022/08/15 11:19:16;;;;;;;9.07;8.25;;;;;;;;;;5016064;28;20232;-54
2022/08/15 11:21:49;;;;;;;9.57;8.68;;;;;;;;;;5021438;28;20260;-56
2022/08/15 11:24:24;;;;;;;8.55;7.82;;;;;;;;;;5019748;28;20236;-55
2022/08/15 11:26:51;;;;;;;8.55;7.43;;;;;;;;;;5020519;28;20247;-56
2022/08/15 11:29:19;;;;;;;10.48;9.25;;;;;;;;;;5015335;28;20243;-54
2022/08/15 11:31:47;;;;;;;10.00;9.07;;;;;;;;;;5016506;28;20336;-55
2022/08/15 11:34:25;;;;;;;8.85;8.13;;;;;;;;;;5014210;28;20228;-57
2022/08/15 11:36:53;;;;;;;8.57;7.75;;;;;;;;;;5013178;28;20267;-57
2022/08/15 11:39:20;;;;;;;9.30;8.50;;;;;;;;;;5016782;28;20240;-56
2022/08/15 11:41:48;;;;;;;10.23;9.32;;;;;;;;;;5016816;28;20239;-55
2022/08/15 11:44:15;;;;;;;9.60;8.80;;;;;;;;;;5015874;28;20232;-55
2022/08/15 11:46:45;;;;;;;8.98;8.10;;;;;;;;;;5015689;28;20259;-55
2022/08/15 11:49:14;;;;;;;9.90;8.93;;;;;;;;;;5017414;28;20243;-56
2022/08/15 11:51:42;;;;;;;11.98;8.68;;;;;;;;;;5017211;28;20583;-55
2022/08/15 11:54:19;;;;;;;9.90;8.90;;;;;;;;;;5017061;28;20533;-55
2022/08/15 11:56:47;;;;;;;10.20;9.30;;;;;;;;;;5016984;28;20742;-55
2022/08/15 11:59:14;;;;;;;9.52;8.70;;;;;;;;;;5013083;28;20253;-55
2022/08/15 12:01:41;;;;;;;8.82;7.85;;;;;;;;;;5014196;28;20233;-55
2022/08/15 12:04:08;;;;;;;8.20;7.60;;;;;;;;;;5017122;28;20249;-55
2022/08/15 12:06:36;;;;;;;9.18;8.27;;;;;;;;;;5015546;28;20247;-54
2022/08/15 12:09:08;;;;;;;9.32;8.52;;;;;;;;;;5017379;28;20241;-55
2022/08/15 12:11:41;;;;;;;9.68;8.63;;;;;;;;;;5016222;28;20263;-54
2022/08/15 12:14:14;;;;;;;8.68;7.97;;;;;;;;;;5013840;28;20241;-54
2022/08/15 12:16:44;;;;;;;8.23;7.53;;;;;;;;;;5016922;28;20243;-55
2022/08/15 12:19:29;;;;;;;9.05;8.25;;;;;;;;;;5006120;28;20232;-54
2022/08/15 12:21:56;;;;;;;9.65;8.77;;;;;;;;;;5016214;28;20327;-54
2022/08/15 12:24:23;;;;;;;8.48;7.72;;;;;;;;;;5019240;28;20708;-54
2022/08/15 12:26:51;;;;;;;9.70;8.55;;;;;;;;;;5011787;28;20838;-54
2022/08/15 12:29:18;;;;;;;9.07;8.27;;;;;;;;;;5014997;28;20917;-56
2022/08/15 12:31:45;;;;;;;8.85;8.05;;;;;;;;;;5012076;28;20311;-54
2022/08/15 12:34:13;;;;;;;8.55;7.60;;;;;;;;;;5012157;28;20247;-56
2022/08/15 12:36:42;;;;;;;8.55;7.85;;;;;;;;;;5013610;28;20229;-54
2022/08/15 12:39:09;;;;;;;8.57;7.63;;;;;;;;;;5013954;28;20240;-54
2022/08/15 12:41:35;;;;;;;11.57;8.27;;;;;;;;;;5009412;28;20225;-54
2022/08/15 12:44:04;;;;;;;8.52;7.72;;;;;;;;;;5017826;28;20236;-55
2022/08/15 12:46:30;;;;;;;8.60;7.80;;;;;;;;;;5016135;28;20243;-55
2022/08/15 12:48:57;;;;;;;10.05;8.27;;;;;;;;;;5011739;28;20239;-55
2022/08/15 12:51:23;;;;;;;9.00;8.30;;;;;;;;;;5015064;28;20231;-54
2022/08/15 12:53:49;;;;;;;9.38;8.50;;;;;;;;;;5020017;28;20246;-56
2022/08/15 12:56:19;;;;;;;9.43;8.52;;;;;;;;;;5017601;28;20239;-54
2022/08/15 12:58:45;;;;;;;9.13;8.30;;;;;;;;;;5016699;28;20311;-54
2022/08/15 13:01:13;;;;;;;9.52;8.60;;;;;;;;;;5014677;28;20239;-55
2022/08/15 13:03:41;;;;;;;8.63;7.88;;;;;;;;;;5017321;28;20224;-54
2022/08/15 13:06:14;;;;;;;8.48;7.68;;;;;;;;;;5010613;28;20612;-55
2022/08/15 13:08:41;;;;;;;7.88;7.18;;;;;;;;;;5015598;28;20220;-53
2022/08/15 13:11:08;;;;;;;8.75;8.05;;;;;;;;;;5010493;28;20232;-55
2022/08/15 13:13:34;;;;;;;9.93;7.88;;;;;;;;;;5016100;28;20232;-56
2022/08/15 13:16:01;;;;;;;13.13;8.23;;;;;;;;;;5013581;28;20333;-56
2022/08/15 13:18:29;;;;;;;8.02;7.32;;;;;;;;;;5017383;28;20659;-55
2022/08/15 13:23:40;;;;;;;8.70;7.97;;;;;;;;;;5011071;28;20822;-55
2022/08/15 13:26:08;;;;;;;9.45;8.43;;;;;;;;;;5017459;28;20347;-55
2022/08/15 13:28:34;;;;;;;8.68;7.97;;;;;;;;;;5016512;28;20229;-55
2022/08/15 13:31:01;;;;;;;9.88;8.88;;;;;;;;;;5013507;28;20302;-56
2022/08/15 13:33:28;;;;;;;8.18;7.47;;;;;;;;;;5012241;28;20233;-55
2022/08/15 13:35:57;;;;;;;8.63;7.82;;;;;;;;;;5016701;28;20228;-54
2022/08/15 13:38:26;;;;;;;12.60;8.20;;;;;;;;;;5015188;28;20715;-55
2022/08/15 13:40:52;;;;;;;9.00;7.75;;;;;;;;;;5014614;28;20229;-55
2022/08/15 13:43:18;;;;;;;9.15;7.82;;;;;;;;;;5012145;28;20703;-54
2022/08/15 13:45:45;;;;;;;9.45;8.52;;;;;;;;;;5015004;28;20244;-55
2022/08/15 13:48:12;;;;;;;8.93;7.80;;;;;;;;;;5015596;28;20232;-55
2022/08/15 13:50:41;;;;;;;9.80;8.90;;;;;;;;;;5018070;28;20225;-54
2022/08/15 13:53:07;;;;;;;8.80;8.10;;;;;;;;;;5016418;28;20684;-55
2022/08/15 13:55:34;;;;;;;8.85;8.02;;;;;;;;;;5017152;28;20236;-56
2022/08/15 13:58:00;;;;;;;8.73;7.97;;;;;;;;;;5014464;28;20267;-55
2022/08/15 14:00:26;;;;;;;10.02;9.05;;;;;;;;;;5016380;28;20588;-58
2022/08/15 14:02:53;;;;;;;8.57;7.78;;;;;;;;;;5019934;28;20235;-55
2022/08/15 14:05:19;;;;;;;9.20;8.30;;;;;;;;;;5021519;28;20236;-55
2022/08/15 14:07:47;;;;;;;9.40;8.60;;;;;;;;;;5016703;28;20527;-55
2022/08/15 14:10:16;;;;;;;10.40;8.30;;;;;;;;;;5016034;28;20605;-56
2022/08/15 14:12:43;;;;;;;8.75;7.95;;;;;;;;;;5015041;28;20235;-54
2022/08/15 14:15:11;;;;;;;9.60;8.48;;;;;;;;;;5017597;28;20730;-56
2022/08/15 14:17:37;;;;;;;8.88;7.43;;;;;;;;;;5015606;28;20633;-55
2022/08/15 14:20:05;;;;;;;7.45;6.75;;;;;;;;;;5011544;28;20240;-55
2022/08/15 14:22:32;;;;;;;7.95;7.22;;;;;;;;;;5014895;28;20225;-56
2022/08/15 14:24:59;;;;;;;6.88;6.28;;;;;;;;;;5019392;28;20841;-55
2022/08/15 14:27:26;;;;;;;6.43;5.93;;;;;;;;;;5016087;28;20255;-54
2022/08/15 14:29:53;;;;;;;7.72;6.68;;;;;;;;;;5018495;28;20232;-55
2022/08/15 14:32:20;;;;;;;6.82;6.22;;;;;;;;;;5013835;28;20263;-55
2022/08/15 14:34:47;;;;;;;7.55;6.95;;;;;;;;;;5012423;28;20602;-54
2022/08/15 14:37:15;;;;;;;7.07;6.47;;;;;;;;;;5019344;28;20240;-55
2022/08/15 14:39:42;;;;;;;7.47;6.88;;;;;;;;;;5013050;28;20259;-55
2022/08/15 14:42:12;;;;;;;7.50;6.93;;;;;;;;;;5018559;28;20232;-55
2022/08/15 14:44:38;;;;;;;7.43;6.68;;;;;;;;;;5018889;28;20236;-55